Alexander Springs, Pennsylvania
Current Conditions -  °F | °C
As of 3:10 PM on Thursday 29 Jan 2015 (Local Time) from KUNV Reporting Station
Light Snow Light Snow  
Wind Chill: 19°   Ceiling: 1800
Heat Index: 27°   Visibility: 1mi
Dew Point:   Wind: 7mph
Humidity: 43%   Direction: 230°SW
Pressure: 29.95"   Gusts: NA
Location:  40.5962°N, 77.7424°W
Report Text: KUNV 292010Z 23006KT 1SM -SN OVC018 M03/M14 A2995
Loading
Personal Weather Stations






























Interactive Weather Map New forecast layout! Learn more

10-Day Weather Forecast

Advertisements
Track Severe Weather on mobile